createdAt,value
2018-05-02T00:01:57.613Z,9.47
2018-05-02T00:04:25.043Z,6.03
2018-05-02T00:06:52.449Z,7.70
2018-05-02T00:09:19.844Z,9.63
2018-05-02T00:11:47.580Z,5.83
2018-05-02T00:14:14.980Z,11.63
2018-05-02T00:16:42.380Z,9.77
2018-05-02T00:19:09.800Z,9.03
2018-05-02T00:21:37.198Z,7.30
2018-05-02T00:24:04.593Z,6.47
2018-05-02T00:26:32.010Z,11.93
2018-05-02T00:28:59.412Z,6.13
2018-05-02T00:31:26.826Z,8.80
2018-05-02T00:33:54.231Z,7.77
2018-05-02T00:36:21.644Z,10.07
2018-05-02T00:38:49.057Z,8.17
2018-05-02T00:41:16.445Z,9.43
2018-05-02T00:43:43.855Z,8.30
2018-05-02T00:46:11.268Z,9.83
2018-05-02T00:48:50.576Z,8.00
2018-05-02T00:51:17.988Z,8.50
2018-05-02T00:53:45.384Z,9.30
2018-05-02T00:56:12.789Z,10.50
2018-05-02T00:58:40.222Z,10.30
2018-05-02T01:01:07.612Z,8.80
2018-05-02T01:03:35.012Z,12.03
2018-05-02T01:06:02.415Z,9.67
2018-05-02T01:08:29.816Z,9.17
2018-05-02T01:10:57.211Z,9.43
2018-05-02T01:13:24.627Z,9.27
2018-05-02T01:15:52.048Z,11.13
2018-05-02T01:18:19.468Z,11.23
2018-05-02T01:20:46.890Z,11.37
2018-05-02T01:23:14.279Z,10.90
2018-05-02T01:25:41.703Z,10.80
2018-05-02T01:28:09.107Z,10.40
2018-05-02T01:30:36.501Z,9.60
2018-05-02T01:33:03.940Z,10.73
2018-05-02T01:35:31.347Z,8.63
2018-05-02T01:37:58.744Z,8.60
2018-05-02T01:40:26.147Z,9.37
2018-05-02T01:42:53.564Z,10.20
2018-05-02T01:45:20.968Z,10.03
2018-05-02T01:47:48.392Z,11.50
2018-05-02T01:50:15.800Z,13.03
2018-05-02T01:52:43.224Z,10.43
2018-05-02T01:55:10.632Z,11.97
2018-05-02T01:57:38.027Z,9.17
2018-05-02T02:00:05.448Z,10.93
2018-05-02T02:02:32.841Z,8.93
2018-05-02T02:05:00.235Z,13.27
2018-05-02T02:07:27.655Z,12.23
2018-05-02T02:09:55.048Z,10.67
2018-05-02T02:12:22.469Z,10.00
2018-05-02T02:14:49.893Z,8.40
2018-05-02T02:17:17.295Z,8.67
2018-05-02T02:19:44.716Z,11.67
2018-05-02T02:22:12.127Z,11.63
2018-05-02T02:24:39.533Z,12.50
2018-05-02T02:27:06.936Z,10.63
2018-05-02T02:29:34.364Z,10.50
2018-05-02T02:32:01.772Z,14.63
2018-05-02T02:34:29.437Z,11.43
2018-05-02T02:36:56.836Z,11.33
2018-05-02T02:39:24.280Z,10.17
2018-05-02T02:41:51.695Z,11.57
2018-05-02T02:44:19.096Z,9.67
2018-05-02T02:46:46.493Z,11.20
2018-05-02T02:49:13.917Z,13.40
2018-05-02T02:51:41.336Z,10.97
2018-05-02T02:54:08.737Z,9.40
2018-05-02T02:56:36.148Z,10.57
2018-05-02T02:59:03.644Z,10.37
2018-05-02T03:01:31.044Z,12.07
2018-05-02T03:03:58.463Z,13.13
2018-05-02T03:06:25.891Z,14.97
2018-05-02T03:08:53.326Z,13.53
2018-05-02T03:11:20.706Z,12.33
2018-05-02T03:13:48.121Z,15.27
2018-05-02T03:16:15.535Z,14.40
2018-05-02T03:18:42.944Z,13.40
2018-05-02T03:21:10.361Z,12.00
2018-05-02T03:23:37.772Z,11.20
2018-05-02T03:26:05.184Z,17.53
2018-05-02T03:28:32.596Z,12.63
2018-05-02T03:30:59.996Z,11.23
2018-05-02T03:33:27.400Z,12.30
2018-05-02T03:35:54.822Z,12.07
2018-05-02T03:38:22.219Z,13.53
2018-05-02T03:40:49.634Z,12.70
2018-05-02T03:43:17.062Z,12.73
2018-05-02T03:45:44.449Z,11.27
2018-05-02T03:48:11.851Z,14.80
2018-05-02T03:50:39.274Z,13.73
2018-05-02T03:53:06.720Z,13.53
2018-05-02T03:55:34.100Z,12.13
2018-05-02T03:58:01.520Z,13.07
2018-05-02T04:00:40.822Z,13.73
2018-05-02T04:03:20.081Z,13.27
2018-05-02T04:05:59.303Z,10.17
2018-05-02T04:08:26.707Z,14.73
2018-05-02T04:10:54.959Z,12.17
2018-05-02T04:13:22.359Z,11.93
2018-05-02T04:15:49.763Z,12.77
2018-05-02T04:18:17.181Z,16.80
2018-05-02T04:20:44.580Z,13.80
2018-05-02T04:23:11.979Z,14.83
2018-05-02T04:25:39.397Z,13.27
2018-05-02T04:28:06.815Z,16.13
2018-05-02T04:30:34.235Z,15.07
2018-05-02T04:33:01.641Z,15.37
2018-05-02T04:35:29.076Z,14.23
2018-05-02T04:37:56.475Z,13.30
2018-05-02T04:40:23.895Z,11.13
2018-05-02T04:42:51.312Z,11.43
2018-05-02T04:45:18.720Z,11.23
2018-05-02T04:47:46.136Z,11.30
2018-05-02T04:50:13.546Z,11.83
2018-05-02T04:52:41.020Z,13.63
2018-05-02T04:55:08.356Z,10.43
2018-05-02T04:57:35.783Z,12.40
2018-05-02T05:00:03.230Z,11.60
2018-05-02T05:02:30.627Z,10.93
2018-05-02T05:04:58.045Z,10.40
2018-05-02T05:07:25.454Z,10.33
2018-05-02T05:09:52.887Z,11.50
2018-05-02T05:12:20.379Z,13.03
2018-05-02T05:14:47.697Z,10.13
2018-05-02T05:17:15.136Z,10.17
2018-05-02T05:19:42.725Z,10.50
2018-05-02T05:22:10.152Z,10.23
2018-05-02T05:24:37.560Z,9.23
2018-05-02T05:27:05.002Z,9.00
2018-05-02T05:29:32.396Z,8.97
2018-05-02T05:31:59.820Z,11.27
2018-05-02T05:34:27.215Z,8.63
2018-05-02T05:36:54.637Z,7.93
2018-05-02T05:39:22.050Z,8.03
2018-05-02T05:41:49.472Z,7.83
2018-05-02T05:44:16.868Z,8.10
2018-05-02T05:46:44.284Z,7.87
2018-05-02T05:49:11.684Z,7.70
2018-05-02T05:51:39.396Z,10.53
2018-05-02T05:54:06.814Z,7.53
2018-05-02T05:56:34.193Z,7.63
2018-05-02T05:59:01.633Z,7.93
2018-05-02T06:01:29.035Z,12.93
2018-05-02T06:03:56.437Z,7.17
2018-05-02T06:06:23.863Z,10.93
2018-05-02T06:08:51.287Z,9.10
2018-05-02T06:11:18.699Z,7.60
2018-05-02T06:13:46.104Z,8.07
2018-05-02T06:16:13.515Z,9.43
2018-05-02T06:18:41.000Z,6.00
2018-05-02T06:21:08.335Z,6.32
2018-05-02T06:23:35.735Z,6.68
2018-05-02T06:26:03.156Z,8.18
2018-05-02T06:28:30.543Z,6.70
2018-05-02T06:30:57.963Z,5.80
2018-05-02T06:33:25.375Z,6.47
2018-05-02T06:35:52.785Z,9.15
2018-05-02T06:38:20.199Z,7.50
2018-05-02T06:40:47.613Z,5.43
2018-05-02T06:43:15.241Z,5.37
2018-05-02T06:45:42.627Z,7.18
2018-05-02T06:48:10.053Z,7.97
2018-05-02T06:50:37.471Z,8.55
2018-05-02T06:53:04.902Z,6.05
2018-05-02T06:55:32.308Z,7.62
2018-05-02T06:57:59.724Z,7.60
2018-05-02T07:00:27.128Z,7.50
2018-05-02T07:02:54.552Z,7.22
2018-05-02T07:05:21.964Z,11.43
2018-05-02T07:07:49.363Z,7.12
2018-05-02T07:10:16.784Z,5.95
2018-05-02T07:12:44.187Z,6.12
2018-05-02T07:15:11.601Z,6.28
2018-05-02T07:17:39.007Z,6.65
2018-05-02T07:20:06.444Z,6.40
2018-05-02T07:22:33.852Z,6.35
2018-05-02T07:25:01.256Z,8.20
2018-05-02T07:27:28.670Z,7.43
2018-05-02T07:29:56.067Z,7.30
2018-05-02T07:32:23.540Z,6.57
2018-05-02T07:34:50.924Z,9.15
2018-05-02T07:37:18.337Z,7.53
2018-05-02T07:39:45.743Z,6.47
2018-05-02T07:42:13.234Z,5.65
2018-05-02T07:44:40.591Z,8.43
2018-05-02T07:47:08.000Z,5.45
2018-05-02T07:49:35.692Z,7.57
2018-05-02T07:52:03.100Z,5.68
2018-05-02T07:54:30.506Z,8.23
2018-05-02T07:56:57.940Z,6.53
2018-05-02T07:59:25.332Z,7.32
2018-05-02T08:01:52.836Z,7.03
2018-05-02T08:04:20.230Z,5.10
2018-05-02T08:06:47.680Z,9.30
2018-05-02T08:09:15.087Z,6.28
2018-05-02T08:11:42.503Z,6.12
2018-05-02T08:14:09.926Z,4.32
2018-05-02T08:16:37.336Z,5.35
2018-05-02T08:19:04.771Z,5.97
2018-05-02T08:21:32.187Z,7.03
2018-05-02T08:23:59.584Z,7.28
2018-05-02T08:26:27.008Z,7.35
2018-05-02T08:28:54.439Z,5.30
2018-05-02T08:31:21.844Z,6.30
2018-05-02T08:33:49.268Z,4.68
2018-05-02T08:36:16.686Z,5.70
2018-05-02T08:38:44.090Z,5.57
2018-05-02T08:41:11.871Z,6.12
2018-05-02T08:43:43.019Z,6.90
2018-05-02T08:46:10.420Z,5.53
2018-05-02T08:48:37.836Z,5.53
2018-05-02T08:51:05.240Z,6.15
2018-05-02T08:53:32.648Z,6.23
2018-05-02T08:56:00.069Z,8.85
2018-05-02T08:58:27.477Z,5.72
2018-05-02T09:00:54.880Z,11.27
2018-05-02T09:03:22.309Z,9.77
2018-05-02T09:05:49.712Z,7.90
2018-05-02T09:08:17.141Z,8.03
2018-05-02T09:10:44.550Z,6.03
2018-05-02T09:13:11.948Z,6.13
2018-05-02T09:15:39.373Z,7.87
2018-05-02T09:18:06.775Z,5.85
2018-05-02T09:20:34.195Z,8.43
2018-05-02T09:23:01.598Z,5.93
2018-05-02T09:25:29.005Z,6.03
2018-05-02T09:27:56.413Z,6.05
2018-05-02T09:30:24.108Z,6.37
2018-05-02T09:32:51.531Z,7.43
2018-05-02T09:35:18.931Z,5.87
2018-05-02T09:37:46.347Z,5.15
2018-05-02T09:40:13.755Z,8.10
2018-05-02T09:42:41.159Z,8.55
2018-05-02T09:45:08.571Z,3.78
2018-05-02T09:47:35.978Z,5.72
2018-05-02T09:50:03.405Z,6.22
2018-05-02T09:52:30.837Z,4.45
2018-05-02T09:54:58.265Z,4.68
2018-05-02T09:57:25.691Z,5.10
2018-05-02T09:59:53.143Z,6.95
2018-05-02T10:02:20.590Z,9.25
2018-05-02T10:04:47.996Z,5.53
2018-05-02T10:07:15.401Z,5.53
2018-05-02T10:09:42.808Z,7.05
2018-05-02T10:12:10.268Z,7.28
2018-05-02T10:14:37.681Z,8.75
2018-05-02T10:17:05.099Z,5.77
2018-05-02T10:19:32.512Z,5.83
2018-05-02T10:22:00.058Z,6.53
2018-05-02T10:24:27.478Z,4.50
2018-05-02T10:26:54.900Z,4.63
2018-05-02T10:29:22.379Z,5.73
2018-05-02T10:31:49.829Z,7.30
2018-05-02T10:34:17.276Z,4.93
2018-05-02T10:36:44.693Z,5.70
2018-05-02T10:39:12.107Z,4.27
2018-05-02T10:41:39.519Z,4.23
2018-05-02T10:44:06.952Z,4.03
2018-05-02T10:46:34.371Z,8.27
2018-05-02T10:49:01.772Z,8.73
2018-05-02T10:51:29.481Z,4.73
2018-05-02T10:53:56.884Z,8.50
2018-05-02T10:56:24.284Z,9.93
2018-05-02T10:58:51.721Z,7.47
2018-05-02T11:01:19.124Z,5.30
2018-05-02T11:03:46.566Z,9.70
2018-05-02T11:06:13.984Z,10.90
2018-05-02T11:08:41.468Z,5.30
2018-05-02T11:11:08.845Z,4.53
2018-05-02T11:13:36.256Z,6.70
2018-05-02T11:16:03.692Z,5.87
2018-05-02T11:18:31.088Z,4.80
2018-05-02T11:20:58.501Z,6.17
2018-05-02T11:23:25.919Z,4.80
2018-05-02T11:25:53.315Z,5.33
2018-05-02T11:28:21.057Z,5.43
2018-05-02T11:30:48.393Z,9.03
2018-05-02T11:33:15.792Z,6.10
2018-05-02T11:35:43.212Z,4.23
2018-05-02T11:38:10.619Z,4.87
2018-05-02T11:40:38.199Z,7.13
2018-05-02T11:43:05.578Z,7.47
2018-05-02T11:45:33.062Z,5.73
2018-05-02T11:48:00.785Z,5.07
2018-05-02T11:50:28.192Z,9.50
2018-05-02T11:52:55.591Z,5.73
2018-05-02T11:55:23.019Z,7.07
2018-05-02T11:57:50.442Z,5.57
2018-05-02T12:00:17.827Z,5.20
2018-05-02T12:02:45.260Z,5.30
2018-05-02T12:05:12.749Z,6.13
2018-05-02T12:07:40.145Z,9.70
2018-05-02T12:10:07.545Z,3.90
2018-05-02T12:12:34.960Z,3.63
2018-05-02T12:15:02.369Z,4.03
2018-05-02T12:17:29.795Z,5.83
2018-05-02T12:19:57.195Z,5.03
2018-05-02T12:22:24.613Z,8.60
2018-05-02T12:24:52.056Z,5.77
2018-05-02T12:27:19.467Z,4.67
2018-05-02T12:29:46.893Z,3.90
2018-05-02T12:32:14.315Z,5.43
2018-05-02T12:34:41.720Z,6.10
2018-05-02T12:37:09.132Z,3.87
2018-05-02T12:39:36.548Z,4.20
2018-05-02T12:42:04.003Z,3.80
2018-05-02T12:44:31.407Z,3.37
2018-05-02T12:46:58.815Z,3.57
2018-05-02T12:49:26.231Z,6.50
2018-05-02T12:51:53.632Z,9.57
2018-05-02T12:54:21.040Z,4.80
2018-05-02T12:56:48.436Z,3.37
2018-05-02T12:59:15.856Z,4.03
2018-05-02T13:01:43.415Z,5.53
2018-05-02T13:04:11.496Z,4.33
2018-05-02T13:06:38.932Z,6.03
2018-05-02T13:09:06.349Z,6.63
2018-05-02T13:11:33.757Z,5.10
2018-05-02T13:14:01.153Z,5.40
2018-05-02T13:16:28.569Z,9.73
2018-05-02T13:18:55.963Z,4.63
2018-05-02T13:21:23.376Z,5.33
2018-05-02T13:23:50.788Z,4.07
2018-05-02T13:26:18.188Z,3.37
2018-05-02T13:28:45.620Z,4.37
2018-05-02T13:31:13.044Z,6.63
2018-05-02T13:33:40.448Z,5.07
2018-05-02T13:36:07.878Z,7.57
2018-05-02T13:38:35.288Z,4.93
2018-05-02T13:41:02.689Z,4.50
2018-05-02T13:43:30.124Z,7.45
2018-05-02T13:45:57.515Z,7.55
2018-05-02T13:48:24.923Z,6.57
2018-05-02T13:50:52.347Z,8.10
2018-05-02T13:53:19.810Z,5.70
2018-05-02T13:55:47.148Z,7.20
2018-05-02T13:58:14.631Z,4.33
2018-05-02T14:00:42.023Z,9.10
2018-05-02T14:03:09.416Z,4.80
2018-05-02T14:05:37.044Z,6.47
2018-05-02T14:08:04.474Z,8.20
2018-05-02T14:10:31.871Z,7.60
2018-05-02T14:12:59.280Z,6.67
2018-05-02T14:15:26.684Z,7.30
2018-05-02T14:17:54.097Z,3.47
2018-05-02T14:20:21.561Z,6.30
2018-05-02T14:22:48.947Z,9.63
2018-05-02T14:25:16.355Z,5.23
2018-05-02T14:27:43.771Z,4.87
2018-05-02T14:30:11.167Z,4.97
2018-05-02T14:32:38.580Z,10.47
2018-05-02T14:35:06.203Z,6.33
2018-05-02T14:37:33.622Z,29.87
2018-05-02T14:40:01.035Z,4.97
2018-05-02T14:42:28.791Z,4.10
2018-05-02T14:44:56.180Z,4.97
2018-05-02T14:47:23.593Z,6.77
2018-05-02T14:49:50.991Z,6.47
2018-05-02T14:52:18.383Z,4.57
2018-05-02T14:54:45.796Z,6.20
2018-05-02T14:57:13.220Z,5.10
2018-05-02T14:59:40.625Z,11.63
2018-05-02T15:02:08.111Z,12.80
2018-05-02T15:04:35.485Z,4.50
2018-05-02T15:07:02.888Z,3.77
2018-05-02T15:09:30.300Z,3.67
2018-05-02T15:11:57.704Z,3.13
2018-05-02T15:14:25.100Z,3.43
2018-05-02T15:16:52.553Z,5.77
2018-05-02T15:19:19.963Z,3.97
2018-05-02T15:21:47.354Z,4.20
2018-05-02T15:24:14.760Z,4.27
2018-05-02T15:26:42.192Z,5.67
2018-05-02T15:29:09.614Z,4.13
2018-05-02T15:31:37.020Z,5.67
2018-05-02T15:34:04.416Z,4.67
2018-05-02T15:36:32.525Z,4.10
2018-05-02T15:38:59.923Z,3.60
2018-05-02T15:41:27.332Z,3.23
2018-05-02T15:43:54.732Z,5.43
2018-05-02T15:46:22.157Z,5.90
2018-05-02T15:48:49.556Z,3.97
2018-05-02T15:51:16.968Z,3.80
2018-05-02T15:53:44.365Z,4.03
2018-05-02T15:56:11.849Z,7.10
2018-05-02T15:58:39.180Z,6.70
2018-05-02T16:01:06.576Z,4.47
2018-05-02T16:03:33.992Z,3.40
2018-05-02T16:06:01.383Z,5.17
2018-05-02T16:08:28.785Z,4.87
2018-05-02T16:10:56.196Z,6.83
2018-05-02T16:13:23.616Z,6.73
2018-05-02T16:15:51.027Z,4.33
2018-05-02T16:18:18.428Z,9.67
2018-05-02T16:20:45.841Z,5.77
2018-05-02T16:23:13.240Z,3.83
2018-05-02T16:25:40.656Z,5.63
2018-05-02T16:28:08.073Z,3.23
2018-05-02T16:30:35.524Z,4.67
2018-05-02T16:33:02.979Z,3.70
2018-05-02T16:35:30.327Z,4.43
2018-05-02T16:37:57.743Z,5.87
2018-05-02T16:40:25.144Z,2.50
2018-05-02T16:42:52.551Z,4.40
2018-05-02T16:45:19.946Z,3.27
2018-05-02T16:47:47.355Z,4.47
2018-05-02T16:50:14.755Z,6.50
2018-05-02T16:52:42.161Z,12.13
2018-05-02T16:55:09.584Z,27.20
2018-05-02T16:57:36.979Z,8.17
2018-05-02T17:00:04.395Z,3.53
2018-05-02T17:02:31.784Z,8.20
2018-05-02T17:04:59.205Z,5.50
2018-05-02T17:07:26.626Z,7.50
2018-05-02T17:09:54.285Z,5.57
2018-05-02T17:12:21.692Z,8.60
2018-05-02T17:14:49.088Z,5.40
2018-05-02T17:17:16.492Z,4.07
2018-05-02T17:19:43.898Z,9.27
2018-05-02T17:22:11.418Z,6.00
2018-05-02T17:24:38.703Z,4.20
2018-05-02T17:27:06.104Z,6.57
2018-05-02T17:29:33.510Z,4.63
2018-05-02T17:32:00.920Z,5.97
2018-05-02T17:34:28.318Z,4.43
2018-05-02T17:36:55.733Z,4.57
2018-05-02T17:39:23.133Z,5.70
2018-05-02T17:41:50.556Z,4.73
2018-05-02T17:44:17.980Z,3.73
2018-05-02T17:46:45.373Z,7.83
2018-05-02T17:49:13.122Z,3.90
2018-05-02T17:51:40.520Z,4.43
2018-05-02T17:54:07.928Z,4.63
2018-05-02T17:56:35.345Z,5.60
2018-05-02T17:59:02.744Z,8.20
2018-05-02T18:01:30.156Z,6.07
2018-05-02T18:03:57.552Z,7.00
2018-05-02T18:06:25.347Z,6.20
2018-05-02T18:08:53.101Z,4.60
2018-05-02T18:11:20.496Z,6.40
2018-05-02T18:13:47.895Z,4.00
2018-05-02T18:16:15.308Z,6.27
2018-05-02T18:18:42.699Z,8.03
2018-05-02T18:21:10.116Z,7.83
2018-05-02T18:23:37.515Z,5.40
2018-05-02T18:26:04.956Z,5.63
2018-05-02T18:28:32.376Z,5.83
2018-05-02T18:30:59.768Z,6.50
2018-05-02T18:33:27.172Z,6.87
2018-05-02T18:35:54.599Z,5.40
2018-05-02T18:38:22.115Z,7.10
2018-05-02T18:40:49.578Z,4.17
2018-05-02T18:43:16.926Z,7.13
2018-05-02T18:45:44.318Z,5.70
2018-05-02T18:48:11.753Z,6.30
2018-05-02T18:50:39.139Z,6.27
2018-05-02T18:53:06.629Z,8.37
2018-05-02T18:55:33.989Z,4.60
2018-05-02T18:58:01.399Z,5.07
2018-05-02T19:00:28.835Z,7.70
2018-05-02T19:02:56.236Z,5.73
2018-05-02T19:05:23.696Z,6.30
2018-05-02T19:07:51.089Z,5.73
2018-05-02T19:10:18.512Z,5.10
2018-05-02T19:12:45.913Z,3.93
2018-05-02T19:15:13.327Z,4.53
2018-05-02T19:17:46.366Z,5.33
2018-05-02T19:20:19.416Z,5.00
2018-05-02T19:22:46.845Z,4.70
2018-05-02T19:28:17.496Z,10.80
2018-05-02T19:30:44.899Z,7.30
2018-05-02T19:33:17.932Z,5.90
2018-05-02T19:35:45.332Z,5.07
2018-05-02T19:38:12.755Z,6.80
2018-05-02T19:40:45.732Z,7.50
2018-05-02T19:43:18.685Z,5.43
2018-05-02T19:45:46.087Z,4.03
2018-05-02T19:48:13.483Z,8.63
2018-05-02T19:50:40.904Z,5.37
2018-05-02T19:53:08.310Z,5.70
2018-05-02T19:55:35.711Z,4.20
2018-05-02T19:58:03.144Z,7.50
2018-05-02T20:00:36.073Z,8.33
2018-05-02T20:03:03.484Z,4.07
2018-05-02T20:05:31.045Z,3.90
2018-05-02T20:07:58.489Z,5.53
2018-05-02T20:10:31.469Z,3.70
2018-05-02T20:16:03.860Z,4.93
2018-05-02T20:18:31.420Z,7.83
2018-05-02T20:20:58.944Z,5.20
2018-05-02T20:23:26.498Z,7.40
2018-05-02T20:25:53.944Z,4.83
2018-05-02T20:28:21.340Z,9.13
2018-05-02T20:30:48.833Z,5.43
2018-05-02T20:33:16.172Z,6.90
2018-05-02T20:35:43.601Z,4.83
2018-05-02T20:38:11.016Z,5.40
2018-05-02T20:40:38.427Z,6.93
2018-05-02T20:43:05.993Z,10.20
2018-05-02T20:45:33.582Z,7.70
2018-05-02T20:48:01.075Z,5.30
2018-05-02T20:50:28.500Z,6.50
2018-05-02T20:52:55.893Z,4.93
2018-05-02T20:55:24.117Z,6.83
2018-05-02T20:57:51.535Z,7.03
2018-05-02T21:00:18.928Z,6.47
2018-05-02T21:02:46.347Z,6.97
2018-05-02T21:05:13.744Z,6.97
2018-05-02T21:07:41.145Z,6.47
2018-05-02T21:10:08.638Z,7.90
2018-05-02T21:12:36.035Z,6.13
2018-05-02T21:15:03.471Z,8.10
2018-05-02T21:17:30.874Z,4.43
2018-05-02T21:19:58.355Z,3.53
2018-05-02T21:22:25.791Z,5.07
2018-05-02T21:24:53.217Z,5.27
2018-05-02T21:27:20.617Z,4.00
2018-05-02T21:29:48.034Z,7.13
2018-05-02T21:32:15.454Z,5.07
2018-05-02T21:34:42.890Z,5.23
2018-05-02T21:37:10.280Z,4.27
2018-05-02T21:39:37.749Z,7.00
2018-05-02T21:42:05.163Z,7.93
2018-05-02T21:44:32.564Z,6.03
2018-05-02T21:46:59.979Z,5.37
2018-05-02T21:49:27.397Z,7.23
2018-05-02T21:51:54.865Z,4.93
2018-05-02T21:54:22.278Z,5.43
2018-05-02T21:56:49.692Z,4.47
2018-05-02T21:59:17.093Z,4.93
2018-05-02T22:01:44.498Z,6.70
2018-05-02T22:04:11.908Z,6.87
2018-05-02T22:06:39.307Z,6.27
2018-05-02T22:09:06.727Z,10.33
2018-05-02T22:11:34.145Z,9.20
2018-05-02T22:14:01.557Z,4.30
2018-05-02T22:16:28.966Z,7.07
2018-05-02T22:18:56.372Z,7.73
2018-05-02T22:21:23.784Z,5.30
2018-05-02T22:23:51.180Z,5.00
2018-05-02T22:26:18.579Z,3.83
2018-05-02T22:28:45.996Z,5.97
2018-05-02T22:31:13.399Z,5.00
2018-05-02T22:33:40.823Z,4.77
2018-05-02T22:36:08.227Z,4.80
2018-05-02T22:38:35.647Z,4.90
2018-05-02T22:41:03.048Z,5.83
2018-05-02T22:43:30.446Z,7.10
2018-05-02T22:45:57.863Z,7.27
2018-05-02T22:48:25.261Z,7.93
2018-05-02T22:50:52.939Z,3.80
2018-05-02T22:53:20.348Z,5.77
2018-05-02T22:55:47.751Z,5.00
2018-05-02T22:58:15.171Z,4.13
2018-05-02T23:00:42.588Z,4.00
2018-05-02T23:03:10.001Z,4.97
2018-05-02T23:05:37.499Z,3.93
2018-05-02T23:08:04.824Z,6.17
2018-05-02T23:10:32.215Z,3.83
2018-05-02T23:12:59.931Z,5.73
2018-05-02T23:15:27.323Z,4.97
2018-05-02T23:17:54.731Z,4.30
2018-05-02T23:20:22.139Z,7.13
2018-05-02T23:22:49.579Z,4.63
2018-05-02T23:25:16.967Z,3.77
2018-05-02T23:27:44.385Z,4.90
2018-05-02T23:30:11.868Z,3.90
2018-05-02T23:32:39.206Z,8.30
2018-05-02T23:35:06.619Z,4.50
2018-05-02T23:37:34.022Z,4.23
2018-05-02T23:40:01.419Z,4.83
2018-05-02T23:42:28.833Z,8.43
2018-05-02T23:44:56.228Z,4.87
2018-05-02T23:47:23.648Z,5.30
2018-05-02T23:49:51.060Z,5.23
2018-05-02T23:52:18.452Z,5.87
2018-05-02T23:54:45.872Z,5.67
2018-05-02T23:57:13.301Z,4.80
2018-05-02T23:59:40.677Z,5.00
